sensor_id;sensor_type;location;lat;lon;timestamp;pressure;altitude;pressure_sealevel;temperature;humidity
7182;BME280;3632;42.724;23.298;2022-09-29T00:00:34;94498.00;;;17.76;84.37
7182;BME280;3632;42.724;23.298;2022-09-29T00:03:01;94503.22;;;17.83;84.34
7182;BME280;3632;42.724;23.298;2022-09-29T00:05:29;94490.56;;;17.88;83.66
7182;BME280;3632;42.724;23.298;2022-09-29T00:07:56;94490.41;;;17.89;83.40
7182;BME280;3632;42.724;23.298;2022-09-29T00:10:22;94404.63;;;17.38;83.65
7182;BME280;3632;42.724;23.298;2022-09-29T00:12:50;94479.72;;;17.71;84.13
7182;BME280;3632;42.724;23.298;2022-09-29T00:15:17;94491.31;;;17.82;84.22
7182;BME280;3632;42.724;23.298;2022-09-29T00:17:44;94494.50;;;17.84;84.16
7182;BME280;3632;42.724;23.298;2022-09-29T00:20:11;94497.75;;;17.92;84.41
7182;BME280;3632;42.724;23.298;2022-09-29T00:22:39;94493.66;;;17.98;83.12
7182;BME280;3632;42.724;23.298;2022-09-29T00:25:06;94491.13;;;17.83;83.89
7182;BME280;3632;42.724;23.298;2022-09-29T00:27:32;94487.63;;;17.69;84.95
7182;BME280;3632;42.724;23.298;2022-09-29T00:29:59;94491.34;;;17.67;86.20
7182;BME280;3632;42.724;23.298;2022-09-29T00:32:26;94467.03;;;17.40;86.38
7182;BME280;3632;42.724;23.298;2022-09-29T00:34:53;94437.78;;;17.12;86.35
7182;BME280;3632;42.724;23.298;2022-09-29T00:37:19;94498.22;;;17.45;86.90
7182;BME280;3632;42.724;23.298;2022-09-29T00:39:47;94491.09;;;17.62;85.44
7182;BME280;3632;42.724;23.298;2022-09-29T00:42:17;94484.88;;;17.56;85.53
7182;BME280;3632;42.724;23.298;2022-09-29T00:45:20;94459.19;;;17.27;85.35
7182;BME280;3632;42.724;23.298;2022-09-29T00:48:01;94490.84;;;17.42;85.93
7182;BME280;3632;42.724;23.298;2022-09-29T00:50:36;94482.19;;;17.14;86.91
7182;BME280;3632;42.724;23.298;2022-09-29T00:53:07;94489.13;;;16.99;88.45
7182;BME280;3632;42.724;23.298;2022-09-29T00:55:41;94487.09;;;17.09;88.42
7182;BME280;3632;42.724;23.298;2022-09-29T00:58:14;94492.13;;;17.17;87.86
7182;BME280;3632;42.724;23.298;2022-09-29T01:00:45;94461.88;;;16.89;88.21
7182;BME280;3632;42.724;23.298;2022-09-29T01:03:14;94486.09;;;16.95;89.00
7182;BME280;3632;42.724;23.298;2022-09-29T01:05:44;94491.19;;;16.88;89.52
7182;BME280;3632;42.724;23.298;2022-09-29T01:08:16;94461.97;;;16.67;89.74
7182;BME280;3632;42.724;23.298;2022-09-29T01:10:49;94479.72;;;16.91;88.68
7182;BME280;3632;42.724;23.298;2022-09-29T01:13:17;94344.91;;;16.04;88.12
7182;BME280;3632;42.724;23.298;2022-09-29T01:15:44;94480.69;;;16.90;88.11
7182;BME280;3632;42.724;23.298;2022-09-29T01:18:11;94491.94;;;16.89;87.90
7182;BME280;3632;42.724;23.298;2022-09-29T01:20:42;94494.53;;;16.89;87.89
7182;BME280;3632;42.724;23.298;2022-09-29T01:26:50;94471.47;;;16.96;86.34
7182;BME280;3632;42.724;23.298;2022-09-29T01:32:36;94492.59;;;17.06;86.23
7182;BME280;3632;42.724;23.298;2022-09-29T01:35:08;94489.47;;;16.96;86.81
7182;BME280;3632;42.724;23.298;2022-09-29T01:37:47;94495.06;;;16.99;86.42
7182;BME280;3632;42.724;23.298;2022-09-29T01:40:24;94493.19;;;17.08;86.07
7182;BME280;3632;42.724;23.298;2022-09-29T01:42:59;94501.72;;;17.08;86.06
7182;BME280;3632;42.724;23.298;2022-09-29T01:45:28;94487.50;;;16.98;86.33
7182;BME280;3632;42.724;23.298;2022-09-29T01:48:02;94501.72;;;16.94;87.26
7182;BME280;3632;42.724;23.298;2022-09-29T01:50:34;94501.09;;;16.92;87.50
7182;BME280;3632;42.724;23.298;2022-09-29T01:53:08;94504.81;;;16.74;88.98
7182;BME280;3632;42.724;23.298;2022-09-29T01:55:41;94514.47;;;16.72;89.19
7182;BME280;3632;42.724;23.298;2022-09-29T01:58:14;94510.22;;;16.65;90.15
7182;BME280;3632;42.724;23.298;2022-09-29T02:00:49;94515.09;;;16.60;89.67
7182;BME280;3632;42.724;23.298;2022-09-29T02:03:21;94514.06;;;16.46;90.62
7182;BME280;3632;42.724;23.298;2022-09-29T02:05:52;94491.47;;;16.19;91.49
7182;BME280;3632;42.724;23.298;2022-09-29T02:08:24;94510.56;;;16.39;92.51
7182;BME280;3632;42.724;23.298;2022-09-29T02:10:58;94506.16;;;16.33;92.89
7182;BME280;3632;42.724;23.298;2022-09-29T02:13:29;94504.38;;;16.11;94.14
7182;BME280;3632;42.724;23.298;2022-09-29T02:15:57;94510.78;;;15.92;95.92
7182;BME280;3632;42.724;23.298;2022-09-29T02:18:30;94499.44;;;15.86;97.50
7182;BME280;3632;42.724;23.298;2022-09-29T02:20:58;94508.59;;;15.81;97.86
7182;BME280;3632;42.724;23.298;2022-09-29T02:23:24;94504.88;;;15.83;98.19
7182;BME280;3632;42.724;23.298;2022-09-29T02:25:52;94513.59;;;15.74;97.76
7182;BME280;3632;42.724;23.298;2022-09-29T02:28:21;94522.63;;;15.70;98.42
7182;BME280;3632;42.724;23.298;2022-09-29T02:30:48;94522.41;;;15.57;99.17
7182;BME280;3632;42.724;23.298;2022-09-29T02:33:19;94515.63;;;15.64;100.00
7182;BME280;3632;42.724;23.298;2022-09-29T02:36:05;94528.72;;;15.77;99.95
7182;BME280;3632;42.724;23.298;2022-09-29T02:38:42;94520.34;;;15.75;99.89
7182;BME280;3632;42.724;23.298;2022-09-29T02:41:18;94520.50;;;15.82;99.89
7182;BME280;3632;42.724;23.298;2022-09-29T02:44:03;94522.41;;;15.80;99.74
7182;BME280;3632;42.724;23.298;2022-09-29T02:46:42;94507.34;;;15.77;99.72
7182;BME280;3632;42.724;23.298;2022-09-29T02:49:27;94513.06;;;15.87;100.00
7182;BME280;3632;42.724;23.298;2022-09-29T02:52:01;94503.50;;;15.95;100.00
7182;BME280;3632;42.724;23.298;2022-09-29T02:54:45;94489.47;;;16.06;99.43
7182;BME280;3632;42.724;23.298;2022-09-29T02:57:18;94482.13;;;16.03;98.95
7182;BME280;3632;42.724;23.298;2022-09-29T02:59:57;94465.41;;;16.22;98.08
7182;BME280;3632;42.724;23.298;2022-09-29T03:02:30;94462.97;;;16.06;96.78
7182;BME280;3632;42.724;23.298;2022-09-29T03:04:57;94466.66;;;16.26;96.22
7182;BME280;3632;42.724;23.298;2022-09-29T03:07:25;94469.53;;;16.45;95.26
7182;BME280;3632;42.724;23.298;2022-09-29T03:09:51;94446.84;;;16.49;94.01
7182;BME280;3632;42.724;23.298;2022-09-29T03:12:18;94479.38;;;16.79;91.75
7182;BME280;3632;42.724;23.298;2022-09-29T03:14:45;94501.19;;;16.83;91.45
7182;BME280;3632;42.724;23.298;2022-09-29T03:17:11;94505.91;;;17.09;88.28
7182;BME280;3632;42.724;23.298;2022-09-29T03:19:38;94510.00;;;17.18;87.78
7182;BME280;3632;42.724;23.298;2022-09-29T03:22:05;94512.38;;;16.90;89.02
7182;BME280;3632;42.724;23.298;2022-09-29T03:24:33;94466.72;;;16.18;91.77
7182;BME280;3632;42.724;23.298;2022-09-29T03:27:00;94528.34;;;16.26;93.56
7182;BME280;3632;42.724;23.298;2022-09-29T03:29:27;94528.47;;;16.32;94.09
7182;BME280;3632;42.724;23.298;2022-09-29T03:31:53;94543.31;;;16.45;93.89
7182;BME280;3632;42.724;23.298;2022-09-29T03:34:20;94524.44;;;16.53;92.16
7182;BME280;3632;42.724;23.298;2022-09-29T03:36:47;94559.09;;;16.65;92.21
7182;BME280;3632;42.724;23.298;2022-09-29T03:39:13;94559.22;;;16.71;92.01
7182;BME280;3632;42.724;23.298;2022-09-29T03:41:41;94558.22;;;16.58;92.44
7182;BME280;3632;42.724;23.298;2022-09-29T03:44:08;94558.13;;;16.43;93.70
7182;BME280;3632;42.724;23.298;2022-09-29T03:46:35;94556.38;;;16.21;94.88
7182;BME280;3632;42.724;23.298;2022-09-29T03:49:01;94539.28;;;16.05;96.01
7182;BME280;3632;42.724;23.298;2022-09-29T03:51:28;94500.28;;;16.02;95.73
7182;BME280;3632;42.724;23.298;2022-09-29T03:53:55;94536.81;;;16.34;95.44
7182;BME280;3632;42.724;23.298;2022-09-29T03:56:22;94521.00;;;16.23;95.42
7182;BME280;3632;42.724;23.298;2022-09-29T03:58:50;94534.81;;;16.22;95.09
7182;BME280;3632;42.724;23.298;2022-09-29T04:01:16;94545.97;;;16.14;95.95
7182;BME280;3632;42.724;23.298;2022-09-29T04:03:43;94534.53;;;16.17;95.89
7182;BME280;3632;42.724;23.298;2022-09-29T04:06:10;94542.09;;;16.18;95.64
7182;BME280;3632;42.724;23.298;2022-09-29T04:08:37;94539.06;;;16.15;96.16
7182;BME280;3632;42.724;23.298;2022-09-29T04:11:04;94523.25;;;16.03;95.33
7182;BME280;3632;42.724;23.298;2022-09-29T04:13:31;94494.59;;;15.83;95.31
7182;BME280;3632;42.724;23.298;2022-09-29T04:16:00;94533.38;;;15.96;95.08
7182;BME280;3632;42.724;23.298;2022-09-29T04:18:28;94526.81;;;15.71;95.78
7182;BME280;3632;42.724;23.298;2022-09-29T04:20:55;94521.84;;;15.70;96.60
7182;BME280;3632;42.724;23.298;2022-09-29T04:23:25;94523.88;;;15.74;96.19
7182;BME280;3632;42.724;23.298;2022-09-29T04:25:51;94508.88;;;15.63;96.86
7182;BME280;3632;42.724;23.298;2022-09-29T04:28:18;94522.09;;;15.44;97.04
7182;BME280;3632;42.724;23.298;2022-09-29T04:30:45;94485.78;;;15.16;98.25
7182;BME280;3632;42.724;23.298;2022-09-29T04:33:13;94513.50;;;15.29;98.56
7182;BME280;3632;42.724;23.298;2022-09-29T04:35:40;94540.09;;;14.97;98.26
7182;BME280;3632;42.724;23.298;2022-09-29T04:38:06;94522.81;;;14.75;99.92
7182;BME280;3632;42.724;23.298;2022-09-29T04:40:34;94518.59;;;14.90;100.00
7182;BME280;3632;42.724;23.298;2022-09-29T04:43:00;94529.31;;;15.09;100.00
7182;BME280;3632;42.724;23.298;2022-09-29T04:45:28;94505.75;;;14.98;99.65
7182;BME280;3632;42.724;23.298;2022-09-29T04:47:54;94526.28;;;15.06;99.62
7182;BME280;3632;42.724;23.298;2022-09-29T04:50:23;94525.78;;;15.11;99.87
7182;BME280;3632;42.724;23.298;2022-09-29T04:52:49;94518.31;;;14.77;99.44
7182;BME280;3632;42.724;23.298;2022-09-29T04:55:16;94518.31;;;14.77;100.00
7182;BME280;3632;42.724;23.298;2022-09-29T04:57:43;94512.81;;;14.96;100.00
7182;BME280;3632;42.724;23.298;2022-09-29T05:00:11;94516.84;;;14.82;100.00
7182;BME280;3632;42.724;23.298;2022-09-29T05:02:38;94520.69;;;14.86;100.00
7182;BME280;3632;42.724;23.298;2022-09-29T05:05:06;94537.81;;;15.10;100.00
7182;BME280;3632;42.724;23.298;2022-09-29T05:07:36;94516.81;;;14.98;99.54
7182;BME280;3632;42.724;23.298;2022-09-29T05:10:03;94513.75;;;15.42;99.14
7182;BME280;3632;42.724;23.298;2022-09-29T05:12:30;94528.06;;;15.44;98.04
7182;BME280;3632;42.724;23.298;2022-09-29T05:14:57;94518.56;;;15.45;98.91
7182;BME280;3632;42.724;23.298;2022-09-29T05:17:23;94533.66;;;15.48;98.67
7182;BME280;3632;42.724;23.298;2022-09-29T05:19:50;94511.13;;;15.27;97.63
7182;BME280;3632;42.724;23.298;2022-09-29T05:22:17;94534.59;;;15.55;96.91
7182;BME280;3632;42.724;23.298;2022-09-29T05:24:50;94536.16;;;15.64;96.64
7182;BME280;3632;42.724;23.298;2022-09-29T05:27:16;94541.25;;;15.72;96.33
7182;BME280;3632;42.724;23.298;2022-09-29T05:29:43;94533.06;;;15.99;96.22
7182;BME280;3632;42.724;23.298;2022-09-29T05:32:11;94545.88;;;16.08;95.90
7182;BME280;3632;42.724;23.298;2022-09-29T05:34:37;94551.06;;;16.22;94.46
7182;BME280;3632;42.724;23.298;2022-09-29T05:37:04;94549.44;;;16.44;92.23
7182;BME280;3632;42.724;23.298;2022-09-29T05:39:31;94542.41;;;16.38;92.99
7182;BME280;3632;42.724;23.298;2022-09-29T05:42:00;94545.16;;;16.36;93.34
7182;BME280;3632;42.724;23.298;2022-09-29T05:44:28;94496.50;;;16.12;93.33
7182;BME280;3632;42.724;23.298;2022-09-29T05:46:54;94567.19;;;16.76;90.00
7182;BME280;3632;42.724;23.298;2022-09-29T05:49:21;94554.00;;;16.79;90.03
7182;BME280;3632;42.724;23.298;2022-09-29T05:51:48;94528.34;;;16.71;89.90
7182;BME280;3632;42.724;23.298;2022-09-29T05:54:15;94555.25;;;16.83;90.22
7182;BME280;3632;42.724;23.298;2022-09-29T05:56:42;94551.25;;;16.96;89.72
7182;BME280;3632;42.724;23.298;2022-09-29T05:59:10;94559.19;;;17.09;89.29
7182;BME280;3632;42.724;23.298;2022-09-29T06:01:37;94555.25;;;16.98;88.61
7182;BME280;3632;42.724;23.298;2022-09-29T06:04:04;94569.91;;;17.12;88.27
7182;BME280;3632;42.724;23.298;2022-09-29T06:06:31;94572.84;;;17.24;88.50
7182;BME280;3632;42.724;23.298;2022-09-29T06:09:01;94561.22;;;17.28;88.08
7182;BME280;3632;42.724;23.298;2022-09-29T06:11:29;94557.66;;;17.29;88.47
7182;BME280;3632;42.724;23.298;2022-09-29T06:13:57;94570.53;;;17.14;88.62
7182;BME280;3632;42.724;23.298;2022-09-29T06:16:26;94552.44;;;17.22;88.50
7182;BME280;3632;42.724;23.298;2022-09-29T06:18:53;94515.22;;;17.10;87.67
7182;BME280;3632;42.724;23.298;2022-09-29T06:21:22;94553.66;;;17.41;87.25
7182;BME280;3632;42.724;23.298;2022-09-29T06:23:49;94554.47;;;17.42;86.50
7182;BME280;3632;42.724;23.298;2022-09-29T06:26:17;94557.19;;;17.55;86.12
7182;BME280;3632;42.724;23.298;2022-09-29T06:28:44;94570.72;;;17.71;85.19
7182;BME280;3632;42.724;23.298;2022-09-29T06:31:12;94559.22;;;17.74;84.24
7182;BME280;3632;42.724;23.298;2022-09-29T06:33:41;94572.78;;;17.97;83.45
7182;BME280;3632;42.724;23.298;2022-09-29T06:36:11;94568.56;;;18.11;82.62
7182;BME280;3632;42.724;23.298;2022-09-29T06:38:58;94580.13;;;18.15;81.38
7182;BME280;3632;42.724;23.298;2022-09-29T06:41:25;94562.25;;;18.13;82.49
7182;BME280;3632;42.724;23.298;2022-09-29T06:43:53;94570.91;;;18.48;81.98
7182;BME280;3632;42.724;23.298;2022-09-29T06:46:20;94571.25;;;18.60;81.59
7182;BME280;3632;42.724;23.298;2022-09-29T06:48:48;94576.09;;;18.69;80.71
7182;BME280;3632;42.724;23.298;2022-09-29T06:51:15;94565.75;;;18.69;80.13
7182;BME280;3632;42.724;23.298;2022-09-29T06:53:42;94538.09;;;18.42;79.69
7182;BME280;3632;42.724;23.298;2022-09-29T06:56:09;94577.38;;;18.59;81.08
7182;BME280;3632;42.724;23.298;2022-09-29T06:58:36;94552.56;;;18.58;80.93
7182;BME280;3632;42.724;23.298;2022-09-29T07:01:04;94583.97;;;18.89;79.55
7182;BME280;3632;42.724;23.298;2022-09-29T07:03:32;94591.59;;;18.97;78.70
7182;BME280;3632;42.724;23.298;2022-09-29T07:06:03;94595.06;;;18.83;77.84
7182;BME280;3632;42.724;23.298;2022-09-29T07:08:30;94596.72;;;18.27;80.27
7182;BME280;3632;42.724;23.298;2022-09-29T07:10:59;94593.91;;;17.86;84.23
7182;BME280;3632;42.724;23.298;2022-09-29T07:13:27;94585.91;;;17.52;87.44
7182;BME280;3632;42.724;23.298;2022-09-29T07:15:54;94581.81;;;17.43;88.63
7182;BME280;3632;42.724;23.298;2022-09-29T07:18:21;94582.88;;;17.77;87.19
7182;BME280;3632;42.724;23.298;2022-09-29T07:20:48;94584.22;;;18.09;84.98
7182;BME280;3632;42.724;23.298;2022-09-29T07:23:16;94585.00;;;17.89;84.69
7182;BME280;3632;42.724;23.298;2022-09-29T07:25:44;94532.69;;;17.44;85.86
7182;BME280;3632;42.724;23.298;2022-09-29T07:28:11;94567.41;;;17.77;87.09
7182;BME280;3632;42.724;23.298;2022-09-29T07:30:38;94572.91;;;17.74;88.01
7182;BME280;3632;42.724;23.298;2022-09-29T07:33:05;94550.97;;;18.00;88.04
7182;BME280;3632;42.724;23.298;2022-09-29T07:35:31;94572.25;;;18.23;85.30
7182;BME280;3632;42.724;23.298;2022-09-29T07:37:58;94565.91;;;18.04;89.19
7182;BME280;3632;42.724;23.298;2022-09-29T07:40:26;94580.78;;;18.02;87.78
7182;BME280;3632;42.724;23.298;2022-09-29T07:42:53;94579.59;;;18.05;88.19
7182;BME280;3632;42.724;23.298;2022-09-29T07:45:20;94576.66;;;18.29;87.17
7182;BME280;3632;42.724;23.298;2022-09-29T07:47:47;94582.53;;;18.59;83.99
7182;BME280;3632;42.724;23.298;2022-09-29T07:50:14;94586.00;;;18.30;86.65
7182;BME280;3632;42.724;23.298;2022-09-29T07:52:40;94585.69;;;17.97;89.84
7182;BME280;3632;42.724;23.298;2022-09-29T07:55:08;94596.13;;;17.74;89.83
7182;BME280;3632;42.724;23.298;2022-09-29T07:57:36;94590.31;;;17.87;91.27
7182;BME280;3632;42.724;23.298;2022-09-29T08:00:03;94592.22;;;18.36;89.41
7182;BME280;3632;42.724;23.298;2022-09-29T08:02:31;94563.56;;;18.45;84.45
7182;BME280;3632;42.724;23.298;2022-09-29T08:04:57;94604.75;;;18.53;84.06
7182;BME280;3632;42.724;23.298;2022-09-29T08:07:24;94612.81;;;18.50;84.53
7182;BME280;3632;42.724;23.298;2022-09-29T08:09:51;94609.75;;;18.83;84.85
7182;BME280;3632;42.724;23.298;2022-09-29T08:12:18;94625.91;;;19.19;83.60
7182;BME280;3632;42.724;23.298;2022-09-29T08:14:46;94612.47;;;19.58;82.50
7182;BME280;3632;42.724;23.298;2022-09-29T08:17:13;94616.00;;;19.91;79.63
7182;BME280;3632;42.724;23.298;2022-09-29T08:19:40;94616.97;;;20.38;77.63
7182;BME280;3632;42.724;23.298;2022-09-29T08:22:07;94614.06;;;20.61;76.94
7182;BME280;3632;42.724;23.298;2022-09-29T08:24:34;94619.25;;;21.07;75.15
7182;BME280;3632;42.724;23.298;2022-09-29T08:27:01;94622.25;;;21.36;73.21
7182;BME280;3632;42.724;23.298;2022-09-29T08:29:31;94614.59;;;21.68;70.71
7182;BME280;3632;42.724;23.298;2022-09-29T08:31:59;94618.16;;;21.93;69.46
7182;BME280;3632;42.724;23.298;2022-09-29T08:34:26;94616.13;;;22.02;68.81
7182;BME280;3632;42.724;23.298;2022-09-29T08:36:53;94620.09;;;22.04;67.06
7182;BME280;3632;42.724;23.298;2022-09-29T08:39:20;94611.25;;;22.12;68.38
7182;BME280;3632;42.724;23.298;2022-09-29T08:41:52;94617.44;;;22.11;64.49
7182;BME280;3632;42.724;23.298;2022-09-29T08:44:26;94615.03;;;22.22;65.05
7182;BME280;3632;42.724;23.298;2022-09-29T08:46:57;94605.81;;;22.26;63.56
7182;BME280;3632;42.724;23.298;2022-09-29T08:49:30;94612.94;;;22.38;64.21
7182;BME280;3632;42.724;23.298;2022-09-29T08:52:04;94614.09;;;22.42;64.45
7182;BME280;3632;42.724;23.298;2022-09-29T08:54:35;94620.84;;;22.49;65.18
7182;BME280;3632;42.724;23.298;2022-09-29T08:57:03;94623.22;;;22.57;63.98
7182;BME280;3632;42.724;23.298;2022-09-29T08:59:31;94625.38;;;22.98;62.77
7182;BME280;3632;42.724;23.298;2022-09-29T09:02:06;94617.63;;;23.35;63.79
7182;BME280;3632;42.724;23.298;2022-09-29T09:04:57;94619.88;;;23.74;58.54
7182;BME280;3632;42.724;23.298;2022-09-29T09:07:33;94602.25;;;23.94;54.97
7182;BME280;3632;42.724;23.298;2022-09-29T09:10:12;94595.81;;;24.15;55.24
7182;BME280;3632;42.724;23.298;2022-09-29T09:12:54;94600.53;;;23.88;50.58
7182;BME280;3632;42.724;23.298;2022-09-29T09:15:40;94594.22;;;23.96;52.10
7182;BME280;3632;42.724;23.298;2022-09-29T09:18:28;94601.81;;;23.97;51.03
7182;BME280;3632;42.724;23.298;2022-09-29T09:21:05;94577.09;;;23.88;48.80
7182;BME280;3632;42.724;23.298;2022-09-29T09:23:42;94600.72;;;23.87;49.09
7182;BME280;3632;42.724;23.298;2022-09-29T09:26:14;94567.00;;;23.62;48.53
7182;BME280;3632;42.724;23.298;2022-09-29T09:28:46;94535.78;;;23.19;48.58
7182;BME280;3632;42.724;23.298;2022-09-29T09:31:17;94508.06;;;22.95;50.93
7182;BME280;3632;42.724;23.298;2022-09-29T09:33:49;94610.19;;;23.38;49.12
7182;BME280;3632;42.724;23.298;2022-09-29T09:36:27;94608.91;;;23.29;49.60
7182;BME280;3632;42.724;23.298;2022-09-29T09:38:59;94576.03;;;23.35;49.83
7182;BME280;3632;42.724;23.298;2022-09-29T09:41:29;94604.34;;;23.86;51.57
7182;BME280;3632;42.724;23.298;2022-09-29T09:44:02;94540.41;;;24.08;46.80
7182;BME280;3632;42.724;23.298;2022-09-29T09:46:32;94597.25;;;24.41;47.20
7182;BME280;3632;42.724;23.298;2022-09-29T09:49:04;94600.31;;;24.68;46.32
7182;BME280;3632;42.724;23.298;2022-09-29T09:51:44;94600.25;;;24.86;45.44
7182;BME280;3632;42.724;23.298;2022-09-29T09:54:17;94599.81;;;25.12;43.87
7182;BME280;3632;42.724;23.298;2022-09-29T09:57:10;94588.72;;;25.52;43.47
7182;BME280;3632;42.724;23.298;2022-09-29T09:59:51;94580.22;;;25.44;42.73
7182;BME280;3632;42.724;23.298;2022-09-29T10:02:22;94582.59;;;25.34;43.38
7182;BME280;3632;42.724;23.298;2022-09-29T10:04:51;94590.81;;;24.85;45.65
7182;BME280;3632;42.724;23.298;2022-09-29T10:07:21;94527.22;;;24.21;44.48
7182;BME280;3632;42.724;23.298;2022-09-29T10:09:49;94601.56;;;24.77;44.52
7182;BME280;3632;42.724;23.298;2022-09-29T10:12:18;94570.50;;;24.64;44.00
7182;BME280;3632;42.724;23.298;2022-09-29T10:14:50;94585.69;;;24.78;44.52
7182;BME280;3632;42.724;23.298;2022-09-29T10:17:20;94599.59;;;24.90;43.70
7182;BME280;3632;42.724;23.298;2022-09-29T10:19:55;94595.97;;;25.26;44.00
7182;BME280;3632;42.724;23.298;2022-09-29T10:22:24;94572.06;;;25.41;43.24
7182;BME280;3632;42.724;23.298;2022-09-29T10:24:52;94583.38;;;25.46;43.69
7182;BME280;3632;42.724;23.298;2022-09-29T10:27:23;94583.41;;;25.23;43.02
7182;BME280;3632;42.724;23.298;2022-09-29T10:29:51;94594.59;;;25.00;43.89
7182;BME280;3632;42.724;23.298;2022-09-29T10:32:24;94591.53;;;24.92;43.05
7182;BME280;3632;42.724;23.298;2022-09-29T10:35:05;94600.28;;;24.56;44.46
7182;BME280;3632;42.724;23.298;2022-09-29T10:37:36;94484.91;;;23.96;44.46
7182;BME280;3632;42.724;23.298;2022-09-29T10:40:14;94582.03;;;24.56;45.16
7182;BME280;3632;42.724;23.298;2022-09-29T10:42:43;94595.25;;;24.43;45.08
7182;BME280;3632;42.724;23.298;2022-09-29T10:45:14;94585.59;;;24.73;44.55
7182;BME280;3632;42.724;23.298;2022-09-29T10:47:46;94578.28;;;24.93;43.26
7182;BME280;3632;42.724;23.298;2022-09-29T10:50:16;94554.22;;;24.91;43.72
7182;BME280;3632;42.724;23.298;2022-09-29T10:52:48;94567.75;;;25.98;42.21
7182;BME280;3632;42.724;23.298;2022-09-29T10:55:19;94562.78;;;26.53;41.82
7182;BME280;3632;42.724;23.298;2022-09-29T10:57:46;94569.56;;;26.99;40.43
7182;BME280;3632;42.724;23.298;2022-09-29T11:00:25;94587.63;;;27.34;38.61
7182;BME280;3632;42.724;23.298;2022-09-29T11:02:54;94568.19;;;27.85;39.59
7182;BME280;3632;42.724;23.298;2022-09-29T11:05:24;94570.63;;;27.92;38.06
7182;BME280;3632;42.724;23.298;2022-09-29T11:07:52;94574.53;;;28.11;37.15
7182;BME280;3632;42.724;23.298;2022-09-29T11:10:27;94568.84;;;28.19;37.51
7182;BME280;3632;42.724;23.298;2022-09-29T11:12:54;94544.25;;;28.20;36.57
7182;BME280;3632;42.724;23.298;2022-09-29T11:15:25;94556.97;;;28.60;36.46
7182;BME280;3632;42.724;23.298;2022-09-29T11:17:53;94559.88;;;28.95;36.63
7182;BME280;3632;42.724;23.298;2022-09-29T11:20:24;94561.09;;;28.83;34.97
7182;BME280;3632;42.724;23.298;2022-09-29T11:23:04;94578.75;;;28.66;35.39
7182;BME280;3632;42.724;23.298;2022-09-29T11:25:59;94558.19;;;28.79;35.57
7182;BME280;3632;42.724;23.298;2022-09-29T11:28:50;94582.22;;;28.98;35.17
7182;BME280;3632;42.724;23.298;2022-09-29T11:31:29;94555.22;;;28.71;35.61
7182;BME280;3632;42.724;23.298;2022-09-29T11:34:06;94551.59;;;29.09;35.17
7182;BME280;3632;42.724;23.298;2022-09-29T11:36:45;94553.69;;;29.07;34.00
7182;BME280;3632;42.724;23.298;2022-09-29T11:39:28;94542.16;;;28.76;35.67
7182;BME280;3632;42.724;23.298;2022-09-29T11:42:08;94543.13;;;29.33;34.81
7182;BME280;3632;42.724;23.298;2022-09-29T11:44:57;94546.59;;;29.91;33.80
7182;BME280;3632;42.724;23.298;2022-09-29T11:47:46;94543.22;;;29.54;35.28
7182;BME280;3632;42.724;23.298;2022-09-29T11:50:22;94545.97;;;29.74;34.33
7182;BME280;3632;42.724;23.298;2022-09-29T11:53:06;94512.78;;;29.63;33.96
7182;BME280;3632;42.724;23.298;2022-09-29T11:56:13;94544.44;;;29.88;33.03
7182;BME280;3632;42.724;23.298;2022-09-29T11:58:54;94545.81;;;29.12;34.54
7182;BME280;3632;42.724;23.298;2022-09-29T12:01:39;94559.16;;;28.20;35.62
7182;BME280;3632;42.724;23.298;2022-09-29T12:04:19;94554.41;;;27.73;36.88
7182;BME280;3632;42.724;23.298;2022-09-29T12:06:54;94557.06;;;27.18;37.55
7182;BME280;3632;42.724;23.298;2022-09-29T12:09:41;94547.56;;;27.34;38.09
7182;BME280;3632;42.724;23.298;2022-09-29T12:12:17;94551.03;;;27.17;37.57
7182;BME280;3632;42.724;23.298;2022-09-29T12:15:00;94546.25;;;26.48;38.86
7182;BME280;3632;42.724;23.298;2022-09-29T12:17:33;94554.91;;;26.65;38.26
7182;BME280;3632;42.724;23.298;2022-09-29T12:20:07;94553.44;;;26.57;39.10
7182;BME280;3632;42.724;23.298;2022-09-29T12:22:41;94529.56;;;26.20;39.48
7182;BME280;3632;42.724;23.298;2022-09-29T12:25:13;94547.41;;;26.40;39.77
7182;BME280;3632;42.724;23.298;2022-09-29T12:27:43;94554.75;;;26.26;39.80
7182;BME280;3632;42.724;23.298;2022-09-29T12:30:14;94550.31;;;26.27;40.57
7182;BME280;3632;42.724;23.298;2022-09-29T12:32:49;94557.13;;;26.28;39.72
7182;BME280;3632;42.724;23.298;2022-09-29T12:35:21;94550.00;;;25.83;40.26
7182;BME280;3632;42.724;23.298;2022-09-29T12:37:53;94558.44;;;25.62;41.41
7182;BME280;3632;42.724;23.298;2022-09-29T12:40:26;94555.16;;;25.43;42.20
7182;BME280;3632;42.724;23.298;2022-09-29T12:43:09;94523.03;;;25.43;41.27
7182;BME280;3632;42.724;23.298;2022-09-29T12:45:43;94559.22;;;25.74;40.88
7182;BME280;3632;42.724;23.298;2022-09-29T12:48:28;94554.56;;;25.65;41.21
7182;BME280;3632;42.724;23.298;2022-09-29T12:51:00;94556.38;;;25.64;40.67
7182;BME280;3632;42.724;23.298;2022-09-29T12:53:31;94560.72;;;25.59;41.38
7182;BME280;3632;42.724;23.298;2022-09-29T12:56:02;94551.41;;;25.63;41.26
7182;BME280;3632;42.724;23.298;2022-09-29T12:58:36;94532.25;;;25.57;41.41
7182;BME280;3632;42.724;23.298;2022-09-29T13:01:19;94548.78;;;25.74;41.36
7182;BME280;3632;42.724;23.298;2022-09-29T13:04:15;94552.41;;;26.13;40.30
7182;BME280;3632;42.724;23.298;2022-09-29T13:07:18;94550.97;;;26.34;39.46
7182;BME280;3632;42.724;23.298;2022-09-29T13:10:00;94551.09;;;26.27;39.77
7182;BME280;3632;42.724;23.298;2022-09-29T13:12:53;94554.00;;;26.03;40.26
7182;BME280;3632;42.724;23.298;2022-09-29T13:15:36;94550.38;;;26.04;40.10
7182;BME280;3632;42.724;23.298;2022-09-29T13:18:23;94551.41;;;26.03;40.12
7182;BME280;3632;42.724;23.298;2022-09-29T13:21:01;94553.59;;;25.94;40.36
7182;BME280;3632;42.724;23.298;2022-09-29T13:29:19;94552.03;;;25.81;41.37
7182;BME280;3632;42.724;23.298;2022-09-29T13:31:50;94549.53;;;25.86;41.55
7182;BME280;3632;42.724;23.298;2022-09-29T13:34:25;94552.97;;;25.75;41.80
7182;BME280;3632;42.724;23.298;2022-09-29T13:36:53;94548.34;;;25.66;41.39
7182;BME280;3632;42.724;23.298;2022-09-29T13:39:31;94549.94;;;25.55;41.92
7182;BME280;3632;42.724;23.298;2022-09-29T13:42:26;94566.97;;;25.58;42.85
7182;BME280;3632;42.724;23.298;2022-09-29T13:45:14;94555.25;;;25.60;43.17